createdAt,value
2022-10-31T00:01:35.650Z,8.57
2022-10-31T00:04:04.380Z,7.60
2022-10-31T00:06:32.797Z,7.70
2022-10-31T00:09:02.977Z,7.45
2022-10-31T00:11:31.427Z,8.63
2022-10-31T00:13:59.881Z,7.47
2022-10-31T00:16:30.900Z,7.20
2022-10-31T00:19:01.975Z,7.30
2022-10-31T00:21:31.901Z,8.25
2022-10-31T00:24:01.185Z,8.70
2022-10-31T00:26:29.908Z,9.38
2022-10-31T00:28:58.914Z,8.43
2022-10-31T00:31:31.063Z,7.78
2022-10-31T00:33:59.935Z,8.60
2022-10-31T00:36:28.687Z,9.13
2022-10-31T00:38:57.232Z,8.35
2022-10-31T00:41:26.073Z,8.00
2022-10-31T00:43:54.129Z,7.55
2022-10-31T00:46:22.224Z,6.43
2022-10-31T00:48:53.710Z,7.55
2022-10-31T00:51:21.799Z,6.83
2022-10-31T00:53:49.943Z,7.05
2022-10-31T00:56:18.147Z,7.35
2022-10-31T00:58:46.632Z,7.38
2022-10-31T01:01:14.827Z,6.65
2022-10-31T01:03:43.028Z,7.50
2022-10-31T01:06:16.835Z,5.90
2022-10-31T01:08:45.184Z,6.60
2022-10-31T01:11:18.289Z,5.30
2022-10-31T01:13:48.028Z,4.40
2022-10-31T01:16:19.534Z,4.72
2022-10-31T01:18:48.807Z,4.57
2022-10-31T01:21:21.582Z,3.87
2022-10-31T01:23:51.152Z,3.97
2022-10-31T01:26:22.303Z,4.23
2022-10-31T01:28:52.845Z,3.45
2022-10-31T01:31:24.129Z,4.10
2022-10-31T01:33:52.799Z,5.10
2022-10-31T01:36:25.934Z,5.43
2022-10-31T01:38:57.524Z,5.30
2022-10-31T01:41:30.019Z,5.15
2022-10-31T01:44:02.351Z,5.10
2022-10-31T01:46:36.084Z,5.68
2022-10-31T01:49:11.679Z,5.60
2022-10-31T01:51:49.969Z,6.07
2022-10-31T01:54:24.354Z,6.07
2022-10-31T01:56:58.128Z,5.40
2022-10-31T01:59:32.627Z,5.70
2022-10-31T02:02:03.307Z,5.78
2022-10-31T02:04:31.958Z,6.07
2022-10-31T02:07:09.366Z,5.63
2022-10-31T02:09:39.592Z,5.97
2022-10-31T02:12:09.472Z,5.93
2022-10-31T02:14:39.540Z,5.60
2022-10-31T02:17:07.847Z,5.23
2022-10-31T02:19:54.026Z,5.83
2022-10-31T02:22:31.302Z,5.67
2022-10-31T02:25:29.619Z,5.70
2022-10-31T02:28:33.125Z,5.00
2022-10-31T02:31:24.335Z,5.80
2022-10-31T02:33:58.341Z,4.87
2022-10-31T02:36:31.449Z,5.40
2022-10-31T02:39:14.904Z,5.50
2022-10-31T02:41:53.409Z,5.60
2022-10-31T02:44:35.708Z,5.90
2022-10-31T02:47:11.495Z,5.53
2022-10-31T02:49:47.698Z,5.60
2022-10-31T02:52:21.005Z,5.60
2022-10-31T02:54:50.442Z,5.90
2022-10-31T02:57:25.187Z,5.67
2022-10-31T03:00:02.211Z,5.60
2022-10-31T03:02:55.719Z,5.00
2022-10-31T03:05:42.772Z,5.37
2022-10-31T03:08:20.817Z,5.00
2022-10-31T03:10:57.337Z,5.55
2022-10-31T03:13:37.791Z,5.30
2022-10-31T03:16:16.278Z,5.13
2022-10-31T03:18:58.257Z,5.67
2022-10-31T03:21:34.813Z,4.93
2022-10-31T03:24:06.325Z,4.93
2022-10-31T03:26:40.279Z,5.47
2022-10-31T03:29:15.388Z,4.87
2022-10-31T03:31:51.662Z,5.40
2022-10-31T03:34:22.521Z,5.53
2022-10-31T03:36:55.517Z,5.20
2022-10-31T03:39:25.304Z,5.38
2022-10-31T03:41:59.058Z,5.20
2022-10-31T03:44:31.366Z,5.50
2022-10-31T03:47:04.842Z,5.27
2022-10-31T03:49:35.903Z,5.80
2022-10-31T03:52:15.588Z,5.30
2022-10-31T03:54:47.190Z,5.43
2022-10-31T03:57:23.509Z,6.32
2022-10-31T03:59:58.091Z,6.20
2022-10-31T04:02:34.256Z,5.93
2022-10-31T04:05:05.795Z,5.73
2022-10-31T04:07:40.799Z,5.63
2022-10-31T04:10:14.507Z,6.17
2022-10-31T04:12:50.584Z,6.67
2022-10-31T04:15:25.648Z,6.65
2022-10-31T04:17:59.805Z,6.67
2022-10-31T04:20:36.359Z,6.00
2022-10-31T04:23:07.948Z,6.60
2022-10-31T04:25:37.005Z,6.47
2022-10-31T04:28:05.905Z,6.18
2022-10-31T04:30:34.025Z,6.60
2022-10-31T04:33:02.645Z,6.20
2022-10-31T04:35:31.097Z,6.20
2022-10-31T04:38:00.552Z,6.13
2022-10-31T04:40:28.762Z,5.97
2022-10-31T04:42:57.094Z,6.70
2022-10-31T04:45:25.304Z,6.40
2022-10-31T04:47:55.002Z,7.80
2022-10-31T04:50:24.278Z,6.53
2022-10-31T04:52:52.690Z,6.60
2022-10-31T04:55:27.363Z,6.80
2022-10-31T04:58:14.131Z,6.50
2022-10-31T05:00:42.487Z,6.30
2022-10-31T05:03:10.905Z,6.30
2022-10-31T05:05:39.078Z,6.03
2022-10-31T05:08:07.654Z,6.87
2022-10-31T05:10:37.228Z,6.40
2022-10-31T05:13:07.258Z,7.23
2022-10-31T05:15:55.364Z,6.43
2022-10-31T05:18:52.867Z,6.40
2022-10-31T05:21:30.076Z,6.73
2022-10-31T05:24:02.360Z,6.47
2022-10-31T05:26:32.651Z,6.60
2022-10-31T05:29:01.488Z,6.23
2022-10-31T05:31:30.274Z,6.97
2022-10-31T05:33:58.405Z,7.30
2022-10-31T05:36:45.018Z,6.87
2022-10-31T05:39:21.707Z,7.40
2022-10-31T05:41:55.366Z,6.80
2022-10-31T05:44:29.690Z,7.27
2022-10-31T05:47:18.341Z,6.77
2022-10-31T05:50:19.637Z,6.63
2022-10-31T05:52:56.611Z,6.17
2022-10-31T05:55:35.705Z,6.00
2022-10-31T05:58:14.083Z,6.87
2022-10-31T06:00:49.389Z,6.20
2022-10-31T06:03:17.803Z,7.03
2022-10-31T06:06:04.506Z,7.23
2022-10-31T06:08:39.343Z,7.63
2022-10-31T06:11:12.482Z,6.67
2022-10-31T06:14:00.815Z,8.67
2022-10-31T06:16:36.705Z,7.47
2022-10-31T06:19:28.052Z,6.33
2022-10-31T06:21:56.175Z,6.57
2022-10-31T06:24:24.399Z,6.40
2022-10-31T06:26:55.459Z,6.43
2022-10-31T06:29:25.159Z,6.73
2022-10-31T06:32:17.419Z,7.07
2022-10-31T06:34:48.977Z,6.97
2022-10-31T06:37:17.722Z,7.60
2022-10-31T06:39:48.905Z,13.60
2022-10-31T06:42:18.492Z,10.63
2022-10-31T06:44:47.951Z,10.80
2022-10-31T06:48:16.034Z,8.73
2022-10-31T06:51:03.597Z,9.27
2022-10-31T06:53:31.915Z,7.97
2022-10-31T06:56:00.259Z,7.87
2022-10-31T06:58:28.453Z,7.93
2022-10-31T07:01:03.371Z,8.90
2022-10-31T07:03:31.511Z,7.93
2022-10-31T07:06:00.026Z,8.43
2022-10-31T07:08:28.944Z,8.50
2022-10-31T07:10:59.091Z,7.60
2022-10-31T07:13:31.691Z,7.80
2022-10-31T07:16:11.448Z,7.33
2022-10-31T07:18:39.679Z,7.97
2022-10-31T07:21:08.278Z,7.97
2022-10-31T07:23:36.779Z,8.17
2022-10-31T07:26:25.176Z,8.07
2022-10-31T07:28:53.874Z,8.00
2022-10-31T07:31:26.086Z,7.73
2022-10-31T07:33:57.226Z,8.63
2022-10-31T07:36:28.278Z,8.57
2022-10-31T07:39:03.146Z,8.20
2022-10-31T07:41:32.792Z,7.80
2022-10-31T07:44:00.925Z,7.97
2022-10-31T07:46:49.278Z,8.03
2022-10-31T07:49:36.347Z,8.75
2022-10-31T07:52:22.957Z,8.33
2022-10-31T07:55:10.715Z,8.50
2022-10-31T07:57:39.498Z,8.75
2022-10-31T08:00:11.844Z,9.43
2022-10-31T08:02:47.264Z,9.77
2022-10-31T08:05:42.117Z,10.00
2022-10-31T08:08:38.297Z,9.77
2022-10-31T08:11:07.604Z,9.63
2022-10-31T08:13:35.768Z,10.90
2022-10-31T08:16:05.693Z,9.77
2022-10-31T08:18:39.751Z,10.10
2022-10-31T08:21:11.376Z,9.52
2022-10-31T08:23:39.510Z,10.15
2022-10-31T08:26:09.299Z,9.07
2022-10-31T08:28:37.442Z,8.27
2022-10-31T08:31:06.642Z,9.25
2022-10-31T08:33:42.091Z,9.20
2022-10-31T08:36:30.720Z,8.85
2022-10-31T08:39:09.086Z,10.52
2022-10-31T08:41:37.206Z,10.15
2022-10-31T08:44:09.307Z,10.20
2022-10-31T08:46:38.582Z,10.57
2022-10-31T08:49:08.240Z,9.93
2022-10-31T08:51:36.393Z,9.50
2022-10-31T08:54:04.619Z,9.52
2022-10-31T08:56:32.823Z,9.70
2022-10-31T08:59:02.268Z,8.80
2022-10-31T09:01:53.155Z,9.57
2022-10-31T09:04:22.709Z,9.07
2022-10-31T09:07:19.555Z,8.35
2022-10-31T09:09:39.952Z,8.55
2022-10-31T09:12:08.295Z,7.70
2022-10-31T09:14:55.194Z,8.23
2022-10-31T09:17:29.987Z,8.73
2022-10-31T09:20:18.250Z,8.35
2022-10-31T09:22:46.665Z,7.85
2022-10-31T09:25:15.245Z,8.95
2022-10-31T09:27:48.251Z,7.95
2022-10-31T09:30:16.721Z,8.15
2022-10-31T09:32:45.192Z,7.93
2022-10-31T09:35:13.677Z,7.35
2022-10-31T09:37:43.116Z,8.00
2022-10-31T09:40:12.583Z,7.63
2022-10-31T09:43:01.834Z,8.55
2022-10-31T09:45:38.480Z,7.55
2022-10-31T09:48:35.879Z,6.97
2022-10-31T09:51:22.244Z,7.22
2022-10-31T09:54:10.306Z,6.35
2022-10-31T09:56:40.113Z,6.45
2022-10-31T09:59:31.055Z,7.03
2022-10-31T10:02:06.494Z,6.43
2022-10-31T10:04:45.134Z,6.70
2022-10-31T10:07:31.758Z,6.82
2022-10-31T10:10:04.539Z,6.30
2022-10-31T10:13:28.628Z,6.30
2022-10-31T10:16:17.067Z,5.70
2022-10-31T10:19:04.949Z,6.07
2022-10-31T10:21:46.902Z,6.68
2022-10-31T10:24:32.884Z,5.95
2022-10-31T10:27:31.436Z,5.75
2022-10-31T10:30:07.329Z,5.60
2022-10-31T10:32:51.134Z,5.13
2022-10-31T10:35:27.900Z,5.18
2022-10-31T10:38:04.067Z,5.07
2022-10-31T10:40:32.462Z,6.00
2022-10-31T10:43:23.288Z,6.05
2022-10-31T10:46:39.267Z,6.53
2022-10-31T10:49:20.917Z,5.20
2022-10-31T10:52:13.133Z,5.85
2022-10-31T10:55:01.530Z,5.13
2022-10-31T10:57:49.966Z,5.55
2022-10-31T11:00:24.612Z,5.82
2022-10-31T11:02:53.667Z,5.55
2022-10-31T11:05:30.054Z,5.78
2022-10-31T11:07:58.163Z,6.03
2022-10-31T11:10:26.542Z,5.70
2022-10-31T11:13:21.642Z,6.68
2022-10-31T11:16:00.463Z,6.57
2022-10-31T11:18:32.175Z,6.45
2022-10-31T11:21:05.138Z,6.32
2022-10-31T11:23:35.089Z,6.40
2022-10-31T11:26:05.700Z,6.65
2022-10-31T11:28:36.299Z,6.47
2022-10-31T11:31:14.384Z,6.00
2022-10-31T11:33:50.028Z,6.15
2022-10-31T11:36:24.433Z,6.80
2022-10-31T11:38:54.361Z,5.35
2022-10-31T11:41:32.146Z,5.38
2022-10-31T11:44:03.769Z,5.05
2022-10-31T11:46:38.072Z,5.35
2022-10-31T11:49:13.382Z,5.35
2022-10-31T11:51:42.567Z,5.35
2022-10-31T11:54:25.523Z,6.03
2022-10-31T11:56:53.865Z,5.90
2022-10-31T11:59:28.965Z,5.00
2022-10-31T12:02:00.860Z,5.03
2022-10-31T12:04:41.760Z,6.32
2022-10-31T12:07:10.381Z,5.25
2022-10-31T12:09:41.088Z,5.10
2022-10-31T12:12:41.437Z,4.68
2022-10-31T12:15:31.439Z,5.40
2022-10-31T12:18:29.647Z,5.25
2022-10-31T12:21:29.390Z,5.70
2022-10-31T12:24:14.137Z,5.30
2022-10-31T12:26:56.609Z,5.40
2022-10-31T12:29:53.478Z,5.22
2022-10-31T12:32:39.356Z,5.80
2022-10-31T12:35:28.086Z,5.45
2022-10-31T12:38:18.721Z,5.50
2022-10-31T12:41:04.283Z,5.15
2022-10-31T12:43:47.185Z,5.25
2022-10-31T12:46:31.945Z,4.93
2022-10-31T12:49:29.933Z,5.13
2022-10-31T12:52:17.034Z,5.72
2022-10-31T12:55:08.814Z,5.60
2022-10-31T12:57:46.428Z,5.80
2022-10-31T13:00:17.922Z,5.15
2022-10-31T13:02:56.117Z,5.78
2022-10-31T13:05:35.142Z,4.80
2022-10-31T13:08:11.615Z,5.82
2022-10-31T13:10:53.448Z,6.57
2022-10-31T13:13:29.244Z,6.03
2022-10-31T13:16:03.283Z,4.97
2022-10-31T13:18:35.789Z,5.13
2022-10-31T13:21:12.585Z,5.25
2022-10-31T13:23:50.907Z,5.05
2022-10-31T13:26:30.991Z,4.90
2022-10-31T13:29:11.637Z,5.05
2022-10-31T13:31:43.443Z,5.05
2022-10-31T13:34:25.607Z,5.43
2022-10-31T13:37:07.492Z,5.40
2022-10-31T13:39:53.798Z,6.05
2022-10-31T13:42:31.992Z,5.00
2022-10-31T13:45:14.495Z,5.63
2022-10-31T13:47:44.401Z,5.57
2022-10-31T13:50:25.556Z,4.80
2022-10-31T13:52:53.771Z,4.60
2022-10-31T13:55:41.732Z,5.05
2022-10-31T13:58:26.634Z,4.50
2022-10-31T14:01:15.107Z,4.95
2022-10-31T14:06:46.339Z,3.60
2022-10-31T14:09:30.859Z,3.42
2022-10-31T14:12:05.686Z,3.40
2022-10-31T14:14:44.314Z,2.75
2022-10-31T14:17:23.201Z,2.88
2022-10-31T14:20:40.611Z,2.83
2022-10-31T14:23:41.150Z,3.03
2022-10-31T14:26:23.178Z,3.35
2022-10-31T14:28:54.588Z,3.10
2022-10-31T14:31:40.087Z,2.97
2022-10-31T14:34:28.657Z,2.97
2022-10-31T14:37:38.130Z,3.17
2022-10-31T14:40:41.897Z,3.45
2022-10-31T14:43:38.498Z,3.25
2022-10-31T14:46:18.864Z,3.17
2022-10-31T14:49:07.236Z,2.92
2022-10-31T14:51:42.501Z,3.17
2022-10-31T14:54:17.115Z,3.00
2022-10-31T14:56:52.178Z,3.45
2022-10-31T14:59:32.480Z,3.65
2022-10-31T15:02:13.174Z,4.22
2022-10-31T15:04:43.386Z,3.50
2022-10-31T15:07:24.210Z,3.78
2022-10-31T15:10:00.820Z,3.75
2022-10-31T15:12:31.709Z,3.95
2022-10-31T15:15:13.410Z,3.97
2022-10-31T15:17:51.350Z,3.60
2022-10-31T15:20:24.044Z,3.67
2022-10-31T15:22:52.750Z,3.00
2022-10-31T15:25:23.243Z,3.65
2022-10-31T15:27:54.106Z,4.18
2022-10-31T15:30:26.092Z,2.83
2022-10-31T15:32:58.682Z,3.58
2022-10-31T15:35:29.981Z,11.00
2022-10-31T15:38:01.470Z,5.55
2022-10-31T15:40:30.217Z,4.95
2022-10-31T15:43:02.468Z,5.55
2022-10-31T15:45:32.120Z,5.88
2022-10-31T15:48:05.498Z,4.97
2022-10-31T15:50:39.940Z,9.77
2022-10-31T15:53:17.883Z,12.60
2022-10-31T15:55:52.986Z,10.25
2022-10-31T15:58:21.839Z,6.13
2022-10-31T16:01:01.982Z,5.53
2022-10-31T16:03:34.297Z,5.05
2022-10-31T16:06:06.364Z,4.22
2022-10-31T16:08:37.250Z,4.25
2022-10-31T16:11:24.732Z,3.90
2022-10-31T16:14:00.505Z,4.93
2022-10-31T16:16:35.926Z,5.55
2022-10-31T16:19:17.921Z,6.05
2022-10-31T16:21:47.052Z,5.75
2022-10-31T16:24:24.743Z,7.07
2022-10-31T16:26:55.746Z,7.43
2022-10-31T16:29:34.092Z,6.80
2022-10-31T16:32:02.693Z,11.13
2022-10-31T16:34:32.289Z,11.30
2022-10-31T16:37:00.457Z,10.75
2022-10-31T16:39:28.554Z,10.40
2022-10-31T16:41:58.590Z,10.93
2022-10-31T16:44:28.607Z,11.00
2022-10-31T16:47:14.921Z,11.25
2022-10-31T16:49:48.022Z,10.57
2022-10-31T16:52:16.429Z,9.40
2022-10-31T16:54:44.664Z,9.80
2022-10-31T16:57:20.645Z,10.10
2022-10-31T16:59:54.678Z,12.13
2022-10-31T17:02:23.610Z,14.40
2022-10-31T17:04:55.807Z,13.38
2022-10-31T17:07:25.192Z,10.65
2022-10-31T17:09:53.330Z,11.15
2022-10-31T17:12:27.164Z,11.65
2022-10-31T17:14:55.392Z,10.43
2022-10-31T17:17:23.604Z,8.75
2022-10-31T17:19:53.153Z,8.82
2022-10-31T17:22:21.518Z,10.95
2022-10-31T17:24:49.785Z,12.00
2022-10-31T17:27:19.063Z,11.95
2022-10-31T17:29:47.310Z,11.07
2022-10-31T17:32:15.609Z,10.85
2022-10-31T17:34:44.042Z,9.90
2022-10-31T17:37:13.628Z,11.40
2022-10-31T17:39:42.113Z,11.27
2022-10-31T17:42:10.254Z,9.68
2022-10-31T17:44:38.399Z,10.02
2022-10-31T17:47:06.632Z,9.82
2022-10-31T17:49:34.686Z,8.45
2022-10-31T17:52:02.829Z,7.90
2022-10-31T17:54:32.241Z,8.75
2022-10-31T17:57:00.315Z,9.27
2022-10-31T17:59:30.047Z,9.25
2022-10-31T18:01:59.601Z,7.88
2022-10-31T18:04:28.518Z,8.98
2022-10-31T18:06:56.628Z,9.60
2022-10-31T18:09:24.808Z,12.25
2022-10-31T18:11:54.306Z,14.35
2022-10-31T18:14:22.533Z,14.18
2022-10-31T18:16:52.064Z,14.07
2022-10-31T18:19:20.249Z,13.88
2022-10-31T18:21:48.343Z,15.45
2022-10-31T18:24:16.510Z,13.93
2022-10-31T18:26:44.690Z,12.25
2022-10-31T18:29:14.271Z,12.25
2022-10-31T18:31:42.369Z,12.38
2022-10-31T18:34:10.632Z,11.07
2022-10-31T18:36:38.793Z,10.48
2022-10-31T18:39:07.353Z,11.50
2022-10-31T18:41:35.641Z,11.85
2022-10-31T18:44:03.792Z,12.23
2022-10-31T18:46:34.158Z,13.43
2022-10-31T18:49:03.339Z,13.32
2022-10-31T18:51:31.664Z,12.77
2022-10-31T18:54:01.985Z,13.00
2022-10-31T18:56:32.746Z,15.40
2022-10-31T18:59:03.332Z,15.82
2022-10-31T19:01:33.507Z,14.15
2022-10-31T19:04:01.705Z,14.40
2022-10-31T19:06:30.837Z,13.50
2022-10-31T19:09:01.587Z,14.25
2022-10-31T19:11:32.879Z,13.25
2022-10-31T19:14:01.464Z,13.15
2022-10-31T19:16:30.528Z,15.73
2022-10-31T19:19:01.463Z,15.48
2022-10-31T19:21:30.451Z,15.80
2022-10-31T19:23:59.135Z,13.88
2022-10-31T19:26:29.019Z,14.07
2022-10-31T19:28:58.034Z,15.00
2022-10-31T19:31:26.334Z,14.10
2022-10-31T19:33:54.483Z,15.40
2022-10-31T19:36:24.763Z,15.43
2022-10-31T19:38:54.101Z,14.65
2022-10-31T19:41:25.991Z,13.75
2022-10-31T19:43:55.236Z,19.42
2022-10-31T19:46:48.124Z,24.30
2022-10-31T19:49:13.808Z,30.95
2022-10-31T19:51:43.331Z,25.27
2022-10-31T19:54:12.642Z,29.98
2022-10-31T19:56:40.936Z,29.83
2022-10-31T19:59:09.313Z,34.88
2022-10-31T20:01:37.516Z,33.75
2022-10-31T20:04:05.930Z,35.60
2022-10-31T20:06:37.241Z,35.13
2022-10-31T20:09:10.004Z,34.08
2022-10-31T20:11:39.446Z,32.20
2022-10-31T20:14:09.428Z,31.27
2022-10-31T20:16:37.997Z,27.55
2022-10-31T20:19:06.771Z,28.23
2022-10-31T20:21:39.536Z,27.83
2022-10-31T20:24:11.087Z,27.95
2022-10-31T20:26:41.768Z,28.33
2022-10-31T20:29:15.916Z,26.55
2022-10-31T20:31:45.968Z,26.15
2022-10-31T20:34:14.504Z,25.20
2022-10-31T20:36:42.753Z,23.75
2022-10-31T20:39:12.388Z,24.55
2022-10-31T20:41:40.826Z,26.23
2022-10-31T20:44:09.002Z,26.87
2022-10-31T20:46:37.205Z,26.20
2022-10-31T20:49:05.392Z,23.88
2022-10-31T20:51:33.485Z,22.75
2022-10-31T20:54:02.069Z,22.15
2022-10-31T20:56:31.768Z,20.20
2022-10-31T20:58:59.940Z,22.67
2022-10-31T21:01:31.526Z,22.80
2022-10-31T21:04:00.490Z,22.85
2022-10-31T21:06:29.804Z,22.03
2022-10-31T21:08:59.149Z,21.38
2022-10-31T21:11:29.266Z,16.13
2022-10-31T21:14:00.419Z,14.18
2022-10-31T21:16:32.228Z,12.23
2022-10-31T21:19:01.865Z,12.40
2022-10-31T21:21:33.162Z,11.77
2022-10-31T21:24:04.748Z,10.85
2022-10-31T21:26:36.867Z,11.30
2022-10-31T21:29:07.851Z,11.63
2022-10-31T21:31:37.946Z,11.77
2022-10-31T21:34:06.675Z,12.48
2022-10-31T21:36:36.481Z,13.38
2022-10-31T21:39:07.320Z,11.70
2022-10-31T21:41:36.201Z,11.98
2022-10-31T21:44:06.193Z,12.30
2022-10-31T21:46:35.268Z,12.57
2022-10-31T21:49:05.354Z,15.20
2022-10-31T21:51:36.239Z,15.43
2022-10-31T21:54:23.401Z,17.83
2022-10-31T21:56:51.977Z,17.65
2022-10-31T21:59:22.674Z,18.80
2022-10-31T22:01:51.681Z,17.30
2022-10-31T22:04:20.556Z,17.67
2022-10-31T22:06:48.686Z,17.42
2022-10-31T22:09:19.631Z,17.60
2022-10-31T22:11:48.145Z,16.60
2022-10-31T22:14:16.860Z,14.88
2022-10-31T22:16:46.372Z,14.32
2022-10-31T22:19:15.752Z,13.88
2022-10-31T22:21:48.691Z,16.35
2022-10-31T22:24:18.338Z,15.75
2022-10-31T22:26:46.593Z,19.02
2022-10-31T22:29:18.238Z,19.67
2022-10-31T22:31:53.420Z,19.38
2022-10-31T22:34:25.475Z,19.02
2022-10-31T22:36:56.241Z,18.53
2022-10-31T22:39:24.765Z,20.70
2022-10-31T22:41:53.012Z,19.90
2022-10-31T22:44:21.280Z,20.53
2022-10-31T22:46:50.783Z,20.33
2022-10-31T22:49:18.877Z,16.67
2022-10-31T22:51:47.285Z,16.05
2022-10-31T22:54:18.563Z,16.90
2022-10-31T22:56:47.203Z,16.67
2022-10-31T22:59:17.609Z,14.45
2022-10-31T23:01:46.624Z,14.48
2022-10-31T23:04:17.446Z,14.18
2022-10-31T23:06:45.908Z,13.38
2022-10-31T23:09:17.154Z,14.80
2022-10-31T23:11:45.980Z,13.68
2022-10-31T23:14:19.378Z,14.60
2022-10-31T23:16:49.662Z,14.88
2022-10-31T23:19:22.513Z,14.53
2022-10-31T23:21:59.393Z,14.00
2022-10-31T23:24:36.581Z,14.15
2022-10-31T23:27:09.813Z,13.38
2022-10-31T23:29:43.205Z,12.68
2022-10-31T23:32:20.156Z,13.15
2022-10-31T23:34:51.995Z,14.27
2022-10-31T23:37:24.203Z,14.02
2022-10-31T23:39:52.375Z,15.10
2022-10-31T23:42:21.453Z,17.47
2022-10-31T23:44:49.902Z,16.77
2022-10-31T23:47:18.939Z,18.02
2022-10-31T23:49:47.249Z,14.60
2022-10-31T23:52:17.259Z,16.03
2022-10-31T23:54:45.386Z,16.50
2022-10-31T23:57:15.627Z,15.82
2022-10-31T23:59:44.039Z,15.02
